Buoy 46770

sailwx.info

Track history (hours):
 
Tides and Currents Weather Stations Pressure Air Temp Water Temp Dewpoint Dewpoint Depression Visibility Wind Speed Wind Dir Waves Ship Positions

Drifting buoy 46770

Last reported at 2018-Feb-22 17:00 UTC. Time now 2018-Feb-22 19:01 UTC.
Position N 19°09' W 155°23'.

Barometer 1017.1 mb
Water temperature 24.9 ° C

Date/timePositionNaut miles runAvg speedWind from/ knotsBaromVisibWave heightAir tempDewpointWater temp
2018-Feb-22 17:00N 19°09' W 155°23'1 1.3 1017.1 24.9
2018-Feb-22 16:00N 19°10' W 155°22'0 0.0 1016.0 24.9
2018-Feb-22 15:00N 19°10' W 155°22'0 0.0 1015.6 24.9
2018-Feb-22 14:00N 19°10' W 155°22'1 0.8 1015.9 24.9
2018-Feb-22 13:00N 19°09' W 155°22'0 0.0 1015.6 24.9
2018-Feb-22 12:00N 19°09' W 155°22'0 0.0 1016.3 24.9
2018-Feb-22 08:00N 19°09' W 155°22'1 0.6 1017.7 25.0
2018-Feb-22 07:00N 19°08' W 155°22'1 0.6 1017.5 25.0
2018-Feb-22 06:00N 19°09' W 155°22'1 0.8 1017.0 25.0
2018-Feb-22 05:00N 19°08' W 155°22'0 0.0 1016.7 25.0
2018-Feb-22 04:00N 19°08' W 155°22'0 0.0 1015.8 25.0
2018-Feb-22 03:00N 19°08' W 155°22'0 0.0 1015.8 25.0
2018-Feb-22 02:00N 19°08' W 155°22'2 1.8 1015.5 25.0
2018-Feb-22 01:00N 19°07' W 155°22'0 0.0 1015.2 25.1
2018-Feb-22 00:00N 19°07' W 155°22'0 0.0 1015.4 25.1
2018-Feb-21 23:00N 19°07' W 155°22'2 0.9 1015.9 25.1
2018-Feb-21 21:00N 19°07' W 155°20'1 0.6 1017.3 25.0
2018-Feb-21 20:00N 19°07' W 155°20'0 0.0 1017.2 25.0
2018-Feb-21 19:00N 19°07' W 155°20'1 0.6 1016.5 25.0
2018-Feb-21 17:00N 19°07' W 155°19'0 0.0 1015.6 25.0
2018-Feb-21 16:00N 19°07' W 155°19'1 0.6 1014.9 25.1
2018-Feb-21 15:00N 19°07' W 155°18'0 0.0 1014.1 25.1
2018-Feb-21 14:00N 19°07' W 155°18'2 1.8 1014.1 25.0
2018-Feb-21 13:00N 19°06' W 155°16'0 0.0 1014.0 25.0
2018-Feb-21 08:00N 19°06' W 155°16'1 0.8 1014.9 25.1
2018-Feb-21 07:00N 19°07' W 155°16'1 0.6 1014.9 25.1
2018-Feb-21 06:00N 19°07' W 155°16'0 0.0 1014.4 25.2
2018-Feb-21 05:00N 19°07' W 155°16'0 0.0 1013.7 25.2
2018-Feb-21 04:00N 19°07' W 155°16'1 0.6 1013.4 25.2
2018-Feb-21 03:00N 19°07' W 155°16'0 0.0 1013.1 25.4
2018-Feb-21 02:00N 19°07' W 155°16'1 0.6 1012.6 25.5
2018-Feb-21 01:00N 19°07' W 155°16'1 1.2 1012.5 25.5
2018-Feb-21 00:00N 19°05' W 155°16'0 0.0 1012.7 25.3
2018-Feb-20 20:00N 19°05' W 155°16'0 0.0 1015.3 24.9
2018-Feb-20 19:00N 19°05' W 155°16'0 0.0 1015.1 24.8
2018-Feb-20 18:00N 19°05' W 155°16'1 0.6 1014.8 24.9
2018-Feb-20 17:00N 19°05' W 155°17'1 0.6 1014.4 24.9
2018-Feb-20 16:00N 19°06' W 155°17'1 0.8 1013.7 24.9
2018-Feb-20 15:00N 19°07' W 155°17'1 0.6 1013.2 24.9
2018-Feb-20 14:00N 19°06' W 155°17'1 0.6 1013.0 24.9
2018-Feb-20 13:00N 19°06' W 155°17'0 0.0 1013.2 24.9
2018-Feb-20 08:00N 19°06' W 155°17'1 0.6 1014.4 24.9
2018-Feb-20 07:00N 19°06' W 155°16'1 0.6 1014.1 24.8
2018-Feb-20 06:00N 19°07' W 155°16'1 0.8 1013.8 24.7
2018-Feb-20 05:00N 19°06' W 155°16'1 0.8 1013.1 24.6
2018-Feb-20 04:00N 19°07' W 155°15'1 1.1 1012.2 24.6
2018-Feb-20 03:00N 19°07' W 155°14'0 0.0 1011.9 24.7
2018-Feb-20 02:00N 19°07' W 155°14'2 1.8 1011.6 24.7
2018-Feb-20 01:00N 19°06' W 155°12'0 0.0 1011.7 24.7
2018-Feb-20 00:00N 19°06' W 155°12'4 0.9 1011.9 24.8
2018-Feb-19 20:00N 19°04' W 155°09'1 0.8 1014.6 24.6
2018-Feb-19 19:00N 19°03' W 155°10'0 0.0 1014.6 24.6
2018-Feb-19 18:00N 19°03' W 155°10'0 0.0 1013.8 24.6
2018-Feb-19 17:00N 19°03' W 155°10'1 0.8 1012.6 24.6
2018-Feb-19 16:00N 19°02' W 155°09'1 0.6 1012.2 24.6
2018-Feb-19 15:00N 19°02' W 155°09'1 0.6 1012.2 24.6
2018-Feb-19 14:00N 19°01' W 155°09'3 2.9 1012.0 24.6
2018-Feb-19 13:00N 18°59' W 155°07'3 2.9 1012.8 24.6
2018-Feb-19 12:00N 19°01' W 155°09'3 0.7 1013.5 24.6
2018-Feb-19 08:00N 18°59' W 155°07'0 0.0 1014.7 24.6
2018-Feb-19 07:00N 18°59' W 155°07'1 0.6 1014.9 24.6
2018-Feb-19 06:00N 18°59' W 155°06'0 0.0 1015.5 24.6
2018-Feb-19 05:00N 18°59' W 155°06'1 0.6 1014.4 24.6
2018-Feb-19 04:00N 18°59' W 155°05'0 0.0 1014.2 24.6
2018-Feb-19 03:00N 18°59' W 155°05'0 0.0 1013.9 24.6
2018-Feb-19 02:00N 18°59' W 155°05'0 0.0 1013.8 24.6
2018-Feb-19 01:00N 18°59' W 155°05'0 0.0 1013.5 24.6
2018-Feb-19 00:00N 18°59' W 155°05'3 1.1 1013.7 24.6
2018-Feb-18 21:00N 18°57' W 155°03'1 0.8 1016.5 24.7
2018-Feb-18 20:00N 18°56' W 155°02'1 1.1 1017.0 24.7
2018-Feb-18 19:00N 18°56' W 155°01'1 0.6 1016.4 24.7
2018-Feb-18 18:00N 18°56' W 155°01'1 0.6 1015.6 24.7
2018-Feb-18 17:00N 18°56' W 155°00'0 0.0 1015.3 24.7
2018-Feb-18 16:00N 18°56' W 155°00'2 1.7 1014.6 24.7
2018-Feb-18 15:00N 18°56' W 154°58'0 0.0 1014.0 24.7
2018-Feb-18 14:00N 18°56' W 154°58'0 0.0 1013.8 24.7
2018-Feb-18 13:00N 18°56' W 154°58'3 0.5 1014.0 24.7
2018-Feb-18 08:00N 18°58' W 154°56'1 0.6 1015.5 24.7
2018-Feb-18 07:00N 18°58' W 154°55'1 0.6 1015.0 24.7
2018-Feb-18 06:00N 18°58' W 154°55'1 0.6 1014.4 24.7
2018-Feb-18 05:00N 18°58' W 154°55'1 1.1 1014.2 24.7
2018-Feb-18 04:00N 18°58' W 154°53'1 0.6 1014.3 24.7
2018-Feb-18 03:00N 18°58' W 154°54'0 0.0 1013.3 24.7
2018-Feb-18 02:00N 18°58' W 154°54'1 0.8 1012.5 24.7
2018-Feb-18 01:00N 18°58' W 154°53'0 0.0 1011.0 24.7
2018-Feb-18 00:00N 18°58' W 154°53'1 0.4 1011.6 24.7
2018-Feb-17 21:00N 18°58' W 154°52'1 0.6 1017.2 24.7
2018-Feb-17 20:00N 18°58' W 154°52'0 0.0 1017.3 24.7
2018-Feb-17 19:00N 18°58' W 154°52'1 0.6 1016.4 24.7
2018-Feb-17 18:00N 18°58' W 154°51'1 0.6 1015.6 24.7
2018-Feb-17 17:00N 18°57' W 154°51'1 1.3 1014.5 24.7
2018-Feb-17 16:00N 18°56' W 154°50'1 0.6 1013.9 24.7
2018-Feb-17 15:00N 18°56' W 154°49'1 1.3 1013.5 24.7
2018-Feb-17 14:00N 18°56' W 154°48'0 0.0 1011.3 24.7
2018-Feb-17 13:00N 18°56' W 154°48'6 1.3 1012.4 24.7
2018-Feb-17 08:00N 18°55' W 154°41'1 1.3 1013.9 24.7
2018-Feb-17 07:00N 18°54' W 154°40'1 1.3 1013.6 24.7
2018-Feb-17 06:00N 18°55' W 154°39'2 1.8 1013.3 24.7
2018-Feb-17 05:00N 18°55' W 154°37'2 1.7 1012.5 24.7
2018-Feb-17 04:00N 18°55' W 154°35'1 0.6 1012.0 24.6
2018-Feb-17 03:00N 18°55' W 154°36'2 1.8 1011.8 24.6
2018-Feb-17 02:00N 18°56' W 154°34'0 0.0 1011.2 24.6
2018-Feb-17 01:00N 18°56' W 154°34'0 0.0 1011.1 24.6
2018-Feb-17 00:00N 18°56' W 154°34'4 1.4 1011.3 24.6
2018-Feb-16 21:00N 18°57' W 154°30'2 2.5 1014.2 24.4
2018-Feb-16 20:00N 18°59' W 154°28'0 0.0 1014.5 24.3
2018-Feb-16 19:00N 18°59' W 154°28'3 2.7 1014.2 24.3
2018-Feb-16 18:00N 19°01' W 154°27'1 1.2 1013.4 24.3
2018-Feb-16 17:00N 19°02' W 154°27'1 1.3 1012.8 24.4
2018-Feb-16 16:00N 19°03' W 154°26'2 2.5 1012.3 24.4
2018-Feb-16 15:00N 19°05' W 154°26'0 0.0 1011.7 24.5
2018-Feb-16 14:00N 19°05' W 154°26'0 0.0 1011.5 24.5
2018-Feb-16 13:00N 19°05' W 154°26'2 0.5 1011.3 24.5
2018-Feb-16 08:00N 19°05' W 154°24'1 0.8 1012.5 24.3
2018-Feb-16 07:00N 19°04' W 154°23'1 0.6 1012.4 24.3
2018-Feb-16 06:00N 19°04' W 154°23'1 0.6 1011.6 24.3
2018-Feb-16 05:00N 19°03' W 154°23'2 2.5 1011.1 24.3
2018-Feb-16 04:00N 19°01' W 154°22'1 0.8 1010.7 24.4
2018-Feb-16 03:00N 19°01' W 154°22'0 0.0 1010.2 24.4
2018-Feb-16 02:00N 19°01' W 154°22'0 0.0 1009.9 24.4
2018-Feb-16 01:00N 19°01' W 154°22'0 0.0 1010.2 24.5
2018-Feb-16 00:00N 19°01' W 154°22'4 1.4 1010.8 24.5
2018-Feb-15 21:00N 18°57' W 154°20'1 0.8 1013.4 24.4
2018-Feb-15 20:00N 18°56' W 154°19'1 0.8 1013.6 24.4
2018-Feb-15 19:00N 18°56' W 154°19'0 0.0 1013.5 24.4
2018-Feb-15 18:00N 18°56' W 154°19'1 0.6 1013.3 24.3
2018-Feb-15 17:00N 18°56' W 154°18'0 0.0 1012.6 24.3
2018-Feb-15 16:00N 18°56' W 154°18'2 1.8 1012.2 24.3
2018-Feb-15 15:00N 18°55' W 154°16'0 0.0 1012.2 24.3
2018-Feb-15 14:00N 18°55' W 154°16'2 0.4 1012.0 24.3
2018-Feb-15 08:00N 18°55' W 154°14'0 0.0 1014.8 24.3
2018-Feb-15 07:00N 18°55' W 154°14'1 0.8 1014.7 24.3
2018-Feb-15 06:00N 18°54' W 154°13'1 0.6 1014.7 24.3
2018-Feb-15 05:00N 18°54' W 154°14'1 1.3 1014.2 24.3
2018-Feb-15 04:00N 18°53' W 154°13'1 1.2 1013.6 24.3
2018-Feb-15 03:00N 18°52' W 154°13'0 0.0 1013.4 24.4
2018-Feb-15 01:00N 18°52' W 154°13'4 0.8 1013.2 24.3
2018-Feb-14 20:00N 18°50' W 154°09'1 0.8 1016.7 24.2
2018-Feb-14 19:00N 18°49' W 154°08'1 0.8 1015.7 24.2
2018-Feb-14 18:00N 18°49' W 154°08'0 0.0 1015.6 24.2
2018-Feb-14 17:00N 18°49' W 154°08'0 0.0 1015.5 24.2
2018-Feb-14 16:00N 18°49' W 154°08'1 1.3 1015.4 24.2
2018-Feb-14 15:00N 18°48' W 154°07'1 0.8 1014.6 24.2
2018-Feb-14 14:00N 18°47' W 154°06'5 2.3 1013.8 24.3
2018-Feb-14 12:00N 18°47' W 154°01'0 0.0 1014.6 24.3
2018-Feb-14 08:00N 18°47' W 154°01'1 0.8 1015.9 24.4
2018-Feb-14 07:00N 18°46' W 154°01'0 0.0 1015.6 24.4
2018-Feb-14 06:00N 18°46' W 154°01'1 1.1 1015.2 24.5
2018-Feb-14 05:00N 18°46' W 153°59'1 0.8 1014.7 24.5
2018-Feb-14 04:00N 18°46' W 153°59'0 0.0 1014.7 24.5
2018-Feb-14 03:00N 18°46' W 153°59'2 2.4 1014.1 24.6
2018-Feb-14 02:00N 18°45' W 153°56'1 0.6 1013.4 24.7
2018-Feb-14 01:00N 18°45' W 153°56'0 0.0 1013.8 24.6
2018-Feb-14 00:00N 18°45' W 153°56'0 0.0 1014.2 24.7
2018-Feb-13 23:00N 18°45' W 153°56'2 1.1 1015.0 24.6
2018-Feb-13 21:00N 18°45' W 153°53'1 0.8 1017.0 24.3
2018-Feb-13 20:00N 18°44' W 153°53'1 1.3 1016.8 24.2
2018-Feb-13 19:00N 18°45' W 153°52'1 0.6 1016.7 24.2
2018-Feb-13 18:00N 18°45' W 153°51'0 0.0 1016.8 24.1
2018-Feb-13 17:00N 18°45' W 153°51'1 1.3 1016.3 24.1
2018-Feb-13 16:00N 18°44' W 153°50'0 0.0 1014.5 24.1
2018-Feb-13 15:00N 18°44' W 153°50'0 0.0 1014.5 24.2
2018-Feb-13 14:00N 18°44' W 153°50'1 1.1 1014.6 24.2
2018-Feb-13 13:00N 18°44' W 153°49'0 0.0 1014.7 24.2
2018-Feb-13 12:00N 18°44' W 153°49'3 0.9 1014.7 24.2
2018-Feb-13 08:00N 18°44' W 153°45'0 0.0 1015.7 24.3
2018-Feb-13 07:00N 18°44' W 153°45'2 1.7 1015.6 24.3
2018-Feb-13 06:00N 18°43' W 153°44'0 0.0 1015.0 24.4
2018-Feb-13 05:00N 18°43' W 153°44'0 0.0 1014.4 24.4
2018-Feb-13 04:00N 18°43' W 153°44'3 2.6 1014.1 24.5
2018-Feb-13 03:00N 18°41' W 153°41'0 0.0 1013.5 24.6
2018-Feb-13 02:00N 18°41' W 153°41'2 1.8 1013.2 24.7
2018-Feb-13 01:00N 18°41' W 153°40'3 3.5 1012.8 24.6
2018-Feb-13 00:00N 18°40' W 153°36'1 0.3 1013.3 24.5
2018-Feb-12 20:00N 18°41' W 153°35'0 0.0 1015.3 24.2
2018-Feb-12 19:00N 18°41' W 153°35'2 1.0 1014.9 24.2
2018-Feb-12 17:00N 18°40' W 153°33'   1013.7 24.2
Track history (hours):
 
Tides and Currents Weather Stations Pressure Air Temp Water Temp Dewpoint Dewpoint Depression Visibility Wind Speed Wind Dir Waves Ship Positions

Drifting buoy 46770

Last reported at 2018-Feb-22 17:00 UTC. Time now 2018-Feb-22 19:01 UTC.
Position N 19°09' W 155°23'.

Barometer 1017.1 mb
Water temperature 24.9 ° C

Date/timePositionNaut miles runAvg speedWind from/ knotsBaromVisibWave heightAir tempDewpointWater temp
2018-Feb-22 17:00N 19°09' W 155°23'1 1.3 1017.1 24.9
2018-Feb-22 16:00N 19°10' W 155°22'0 0.0 1016.0 24.9
2018-Feb-22 15:00N 19°10' W 155°22'0 0.0 1015.6 24.9
2018-Feb-22 14:00N 19°10' W 155°22'1 0.8 1015.9 24.9
2018-Feb-22 13:00N 19°09' W 155°22'0 0.0 1015.6 24.9
2018-Feb-22 12:00N 19°09' W 155°22'0 0.0 1016.3 24.9
2018-Feb-22 08:00N 19°09' W 155°22'1 0.6 1017.7 25.0
2018-Feb-22 07:00N 19°08' W 155°22'1 0.6 1017.5 25.0
2018-Feb-22 06:00N 19°09' W 155°22'1 0.8 1017.0 25.0
2018-Feb-22 05:00N 19°08' W 155°22'0 0.0 1016.7 25.0
2018-Feb-22 04:00N 19°08' W 155°22'0 0.0 1015.8 25.0
2018-Feb-22 03:00N 19°08' W 155°22'0 0.0 1015.8 25.0
2018-Feb-22 02:00N 19°08' W 155°22'2 1.8 1015.5 25.0
2018-Feb-22 01:00N 19°07' W 155°22'0 0.0 1015.2 25.1
2018-Feb-22 00:00N 19°07' W 155°22'0 0.0 1015.4 25.1
2018-Feb-21 23:00N 19°07' W 155°22'2 0.9 1015.9 25.1
2018-Feb-21 21:00N 19°07' W 155°20'1 0.6 1017.3 25.0
2018-Feb-21 20:00N 19°07' W 155°20'0 0.0 1017.2 25.0
2018-Feb-21 19:00N 19°07' W 155°20'1 0.6 1016.5 25.0
2018-Feb-21 17:00N 19°07' W 155°19'0 0.0 1015.6 25.0
2018-Feb-21 16:00N 19°07' W 155°19'1 0.6 1014.9 25.1
2018-Feb-21 15:00N 19°07' W 155°18'0 0.0 1014.1 25.1
2018-Feb-21 14:00N 19°07' W 155°18'2 1.8 1014.1 25.0
2018-Feb-21 13:00N 19°06' W 155°16'0 0.0 1014.0 25.0
2018-Feb-21 08:00N 19°06' W 155°16'1 0.8 1014.9 25.1
2018-Feb-21 07:00N 19°07' W 155°16'1 0.6 1014.9 25.1
2018-Feb-21 06:00N 19°07' W 155°16'0 0.0 1014.4 25.2
2018-Feb-21 05:00N 19°07' W 155°16'0 0.0 1013.7 25.2
2018-Feb-21 04:00N 19°07' W 155°16'1 0.6 1013.4 25.2
2018-Feb-21 03:00N 19°07' W 155°16'0 0.0 1013.1 25.4
2018-Feb-21 02:00N 19°07' W 155°16'1 0.6 1012.6 25.5
2018-Feb-21 01:00N 19°07' W 155°16'1 1.2 1012.5 25.5
2018-Feb-21 00:00N 19°05' W 155°16'0 0.0 1012.7 25.3
2018-Feb-20 20:00N 19°05' W 155°16'0 0.0 1015.3 24.9
2018-Feb-20 19:00N 19°05' W 155°16'0 0.0 1015.1 24.8
2018-Feb-20 18:00N 19°05' W 155°16'1 0.6 1014.8 24.9
2018-Feb-20 17:00N 19°05' W 155°17'1 0.6 1014.4 24.9
2018-Feb-20 16:00N 19°06' W 155°17'1 0.8 1013.7 24.9
2018-Feb-20 15:00N 19°07' W 155°17'1 0.6 1013.2 24.9
2018-Feb-20 14:00N 19°06' W 155°17'1 0.6 1013.0 24.9
2018-Feb-20 13:00N 19°06' W 155°17'0 0.0 1013.2 24.9
2018-Feb-20 08:00N 19°06' W 155°17'1 0.6 1014.4 24.9
2018-Feb-20 07:00N 19°06' W 155°16'1 0.6 1014.1 24.8
2018-Feb-20 06:00N 19°07' W 155°16'1 0.8 1013.8 24.7
2018-Feb-20 05:00N 19°06' W 155°16'1 0.8 1013.1 24.6
2018-Feb-20 04:00N 19°07' W 155°15'1 1.1 1012.2 24.6
2018-Feb-20 03:00N 19°07' W 155°14'0 0.0 1011.9 24.7
2018-Feb-20 02:00N 19°07' W 155°14'2 1.8 1011.6 24.7
2018-Feb-20 01:00N 19°06' W 155°12'0 0.0 1011.7 24.7
2018-Feb-20 00:00N 19°06' W 155°12'4 0.9 1011.9 24.8
2018-Feb-19 20:00N 19°04' W 155°09'1 0.8 1014.6 24.6
2018-Feb-19 19:00N 19°03' W 155°10'0 0.0 1014.6 24.6
2018-Feb-19 18:00N 19°03' W 155°10'0 0.0 1013.8 24.6
2018-Feb-19 17:00N 19°03' W 155°10'1 0.8 1012.6 24.6
2018-Feb-19 16:00N 19°02' W 155°09'1 0.6 1012.2 24.6
2018-Feb-19 15:00N 19°02' W 155°09'1 0.6 1012.2 24.6
2018-Feb-19 14:00N 19°01' W 155°09'3 2.9 1012.0 24.6
2018-Feb-19 13:00N 18°59' W 155°07'3 2.9 1012.8 24.6
2018-Feb-19 12:00N 19°01' W 155°09'3 0.7 1013.5 24.6
2018-Feb-19 08:00N 18°59' W 155°07'0 0.0 1014.7 24.6
2018-Feb-19 07:00N 18°59' W 155°07'1 0.6 1014.9 24.6
2018-Feb-19 06:00N 18°59' W 155°06'0 0.0 1015.5 24.6
2018-Feb-19 05:00N 18°59' W 155°06'1 0.6 1014.4 24.6
2018-Feb-19 04:00N 18°59' W 155°05'0 0.0 1014.2 24.6
2018-Feb-19 03:00N 18°59' W 155°05'0 0.0 1013.9 24.6
2018-Feb-19 02:00N 18°59' W 155°05'0 0.0 1013.8 24.6
2018-Feb-19 01:00N 18°59' W 155°05'0 0.0 1013.5 24.6
2018-Feb-19 00:00N 18°59' W 155°05'3 1.1 1013.7 24.6
2018-Feb-18 21:00N 18°57' W 155°03'1 0.8 1016.5 24.7
2018-Feb-18 20:00N 18°56' W 155°02'1 1.1 1017.0 24.7
2018-Feb-18 19:00N 18°56' W 155°01'1 0.6 1016.4 24.7
2018-Feb-18 18:00N 18°56' W 155°01'1 0.6 1015.6 24.7
2018-Feb-18 17:00N 18°56' W 155°00'0 0.0 1015.3 24.7
2018-Feb-18 16:00N 18°56' W 155°00'2 1.7 1014.6 24.7
2018-Feb-18 15:00N 18°56' W 154°58'0 0.0 1014.0 24.7
2018-Feb-18 14:00N 18°56' W 154°58'0 0.0 1013.8 24.7
2018-Feb-18 13:00N 18°56' W 154°58'3 0.5 1014.0 24.7
2018-Feb-18 08:00N 18°58' W 154°56'1 0.6 1015.5 24.7
2018-Feb-18 07:00N 18°58' W 154°55'1 0.6 1015.0 24.7
2018-Feb-18 06:00N 18°58' W 154°55'1 0.6 1014.4 24.7
2018-Feb-18 05:00N 18°58' W 154°55'1 1.1 1014.2 24.7
2018-Feb-18 04:00N 18°58' W 154°53'1 0.6 1014.3 24.7
2018-Feb-18 03:00N 18°58' W 154°54'0 0.0 1013.3 24.7
2018-Feb-18 02:00N 18°58' W 154°54'1 0.8 1012.5 24.7
2018-Feb-18 01:00N 18°58' W 154°53'0 0.0 1011.0 24.7
2018-Feb-18 00:00N 18°58' W 154°53'1 0.4 1011.6 24.7
2018-Feb-17 21:00N 18°58' W 154°52'1 0.6 1017.2 24.7
2018-Feb-17 20:00N 18°58' W 154°52'0 0.0 1017.3 24.7
2018-Feb-17 19:00N 18°58' W 154°52'1 0.6 1016.4 24.7
2018-Feb-17 18:00N 18°58' W 154°51'1 0.6 1015.6 24.7
2018-Feb-17 17:00N 18°57' W 154°51'1 1.3 1014.5 24.7
2018-Feb-17 16:00N 18°56' W 154°50'1 0.6 1013.9 24.7
2018-Feb-17 15:00N 18°56' W 154°49'1 1.3 1013.5 24.7
2018-Feb-17 14:00N 18°56' W 154°48'0 0.0 1011.3 24.7
2018-Feb-17 13:00N 18°56' W 154°48'6 1.3 1012.4 24.7
2018-Feb-17 08:00N 18°55' W 154°41'1 1.3 1013.9 24.7
2018-Feb-17 07:00N 18°54' W 154°40'1 1.3 1013.6 24.7
2018-Feb-17 06:00N 18°55' W 154°39'2 1.8 1013.3 24.7
2018-Feb-17 05:00N 18°55' W 154°37'2 1.7 1012.5 24.7
2018-Feb-17 04:00N 18°55' W 154°35'1 0.6 1012.0 24.6
2018-Feb-17 03:00N 18°55' W 154°36'2 1.8 1011.8 24.6
2018-Feb-17 02:00N 18°56' W 154°34'0 0.0 1011.2 24.6
2018-Feb-17 01:00N 18°56' W 154°34'0 0.0 1011.1 24.6
2018-Feb-17 00:00N 18°56' W 154°34'4 1.4 1011.3 24.6
2018-Feb-16 21:00N 18°57' W 154°30'2 2.5 1014.2 24.4
2018-Feb-16 20:00N 18°59' W 154°28'0 0.0 1014.5 24.3
2018-Feb-16 19:00N 18°59' W 154°28'3 2.7 1014.2 24.3
2018-Feb-16 18:00N 19°01' W 154°27'1 1.2 1013.4 24.3
2018-Feb-16 17:00N 19°02' W 154°27'1 1.3 1012.8 24.4
2018-Feb-16 16:00N 19°03' W 154°26'2 2.5 1012.3 24.4
2018-Feb-16 15:00N 19°05' W 154°26'0 0.0 1011.7 24.5
2018-Feb-16 14:00N 19°05' W 154°26'0 0.0 1011.5 24.5
2018-Feb-16 13:00N 19°05' W 154°26'2 0.5 1011.3 24.5
2018-Feb-16 08:00N 19°05' W 154°24'1 0.8 1012.5 24.3
2018-Feb-16 07:00N 19°04' W 154°23'1 0.6 1012.4 24.3
2018-Feb-16 06:00N 19°04' W 154°23'1 0.6 1011.6 24.3
2018-Feb-16 05:00N 19°03' W 154°23'2 2.5 1011.1 24.3
2018-Feb-16 04:00N 19°01' W 154°22'1 0.8 1010.7 24.4
2018-Feb-16 03:00N 19°01' W 154°22'0 0.0 1010.2 24.4
2018-Feb-16 02:00N 19°01' W 154°22'0 0.0 1009.9 24.4
2018-Feb-16 01:00N 19°01' W 154°22'0 0.0 1010.2 24.5
2018-Feb-16 00:00N 19°01' W 154°22'4 1.4 1010.8 24.5
2018-Feb-15 21:00N 18°57' W 154°20'1 0.8 1013.4 24.4
2018-Feb-15 20:00N 18°56' W 154°19'1 0.8 1013.6 24.4
2018-Feb-15 19:00N 18°56' W 154°19'0 0.0 1013.5 24.4
2018-Feb-15 18:00N 18°56' W 154°19'1 0.6 1013.3 24.3
2018-Feb-15 17:00N 18°56' W 154°18'0 0.0 1012.6 24.3
2018-Feb-15 16:00N 18°56' W 154°18'2 1.8 1012.2 24.3
2018-Feb-15 15:00N 18°55' W 154°16'0 0.0 1012.2 24.3
2018-Feb-15 14:00N 18°55' W 154°16'2 0.4 1012.0 24.3
2018-Feb-15 08:00N 18°55' W 154°14'0 0.0 1014.8 24.3
2018-Feb-15 07:00N 18°55' W 154°14'1 0.8 1014.7 24.3
2018-Feb-15 06:00N 18°54' W 154°13'1 0.6 1014.7 24.3
2018-Feb-15 05:00N 18°54' W 154°14'1 1.3 1014.2 24.3
2018-Feb-15 04:00N 18°53' W 154°13'1 1.2 1013.6 24.3
2018-Feb-15 03:00N 18°52' W 154°13'0 0.0 1013.4 24.4
2018-Feb-15 01:00N 18°52' W 154°13'4 0.8 1013.2 24.3
2018-Feb-14 20:00N 18°50' W 154°09'1 0.8 1016.7 24.2
2018-Feb-14 19:00N 18°49' W 154°08'1 0.8 1015.7 24.2
2018-Feb-14 18:00N 18°49' W 154°08'0 0.0 1015.6 24.2
2018-Feb-14 17:00N 18°49' W 154°08'0 0.0 1015.5 24.2
2018-Feb-14 16:00N 18°49' W 154°08'1 1.3 1015.4 24.2
2018-Feb-14 15:00N 18°48' W 154°07'1 0.8 1014.6 24.2
2018-Feb-14 14:00N 18°47' W 154°06'5 2.3 1013.8 24.3
2018-Feb-14 12:00N 18°47' W 154°01'0 0.0 1014.6 24.3
2018-Feb-14 08:00N 18°47' W 154°01'1 0.8 1015.9 24.4
2018-Feb-14 07:00N 18°46' W 154°01'0 0.0 1015.6 24.4
2018-Feb-14 06:00N 18°46' W 154°01'1 1.1 1015.2 24.5
2018-Feb-14 05:00N 18°46' W 153°59'1 0.8 1014.7 24.5
2018-Feb-14 04:00N 18°46' W 153°59'0 0.0 1014.7 24.5
2018-Feb-14 03:00N 18°46' W 153°59'2 2.4 1014.1 24.6
2018-Feb-14 02:00N 18°45' W 153°56'1 0.6 1013.4 24.7
2018-Feb-14 01:00N 18°45' W 153°56'0 0.0 1013.8 24.6
2018-Feb-14 00:00N 18°45' W 153°56'0 0.0 1014.2 24.7
2018-Feb-13 23:00N 18°45' W 153°56'2 1.1 1015.0 24.6
2018-Feb-13 21:00N 18°45' W 153°53'1 0.8 1017.0 24.3
2018-Feb-13 20:00N 18°44' W 153°53'1 1.3 1016.8 24.2
2018-Feb-13 19:00N 18°45' W 153°52'1 0.6 1016.7 24.2
2018-Feb-13 18:00N 18°45' W 153°51'0 0.0 1016.8 24.1
2018-Feb-13 17:00N 18°45' W 153°51'1 1.3 1016.3 24.1
2018-Feb-13 16:00N 18°44' W 153°50'0 0.0 1014.5 24.1
2018-Feb-13 15:00N 18°44' W 153°50'0 0.0 1014.5 24.2
2018-Feb-13 14:00N 18°44' W 153°50'1 1.1 1014.6 24.2
2018-Feb-13 13:00N 18°44' W 153°49'0 0.0 1014.7 24.2
2018-Feb-13 12:00N 18°44' W 153°49'3 0.9 1014.7 24.2
2018-Feb-13 08:00N 18°44' W 153°45'0 0.0 1015.7 24.3
2018-Feb-13 07:00N 18°44' W 153°45'2 1.7 1015.6 24.3
2018-Feb-13 06:00N 18°43' W 153°44'0 0.0 1015.0 24.4
2018-Feb-13 05:00N 18°43' W 153°44'0 0.0 1014.4 24.4
2018-Feb-13 04:00N 18°43' W 153°44'3 2.6 1014.1 24.5
2018-Feb-13 03:00N 18°41' W 153°41'0 0.0 1013.5 24.6
2018-Feb-13 02:00N 18°41' W 153°41'2 1.8 1013.2 24.7
2018-Feb-13 01:00N 18°41' W 153°40'3 3.5 1012.8 24.6
2018-Feb-13 00:00N 18°40' W 153°36'1 0.3 1013.3 24.5
2018-Feb-12 20:00N 18°41' W 153°35'0 0.0 1015.3 24.2
2018-Feb-12 19:00N 18°41' W 153°35'2 1.0 1014.9 24.2
2018-Feb-12 17:00N 18°40' W 153°33'   1013.7 24.2

Dump ship's entire track history